createdAt,value
2022-07-28T00:01:19.987Z,87.80
2022-07-28T00:03:49.026Z,88.00
2022-07-28T00:06:17.653Z,87.90
2022-07-28T00:08:47.167Z,88.20
2022-07-28T00:11:16.333Z,88.20
2022-07-28T00:13:44.466Z,88.50
2022-07-28T00:16:12.825Z,88.50
2022-07-28T00:18:41.168Z,88.30
2022-07-28T00:21:09.213Z,88.20
2022-07-28T00:23:38.795Z,88.60
2022-07-28T00:26:11.860Z,88.60
2022-07-28T00:28:40.246Z,88.20
2022-07-28T00:31:11.943Z,88.20
2022-07-28T00:33:42.455Z,88.90
2022-07-28T00:36:12.035Z,89.30
2022-07-28T00:38:44.054Z,89.70
2022-07-28T00:41:14.299Z,89.90
2022-07-28T00:43:45.558Z,89.90
2022-07-28T00:46:15.377Z,89.90
2022-07-28T00:48:48.013Z,90.00
2022-07-28T00:51:17.716Z,90.10
2022-07-28T00:53:46.775Z,90.20
2022-07-28T00:56:16.934Z,90.30
2022-07-28T00:58:45.095Z,90.50
2022-07-28T01:01:15.917Z,90.40
2022-07-28T01:03:48.499Z,90.30
2022-07-28T01:06:33.272Z,90.40
2022-07-28T01:09:17.570Z,90.50
2022-07-28T01:12:02.314Z,90.50
2022-07-28T01:14:39.573Z,90.70
2022-07-28T01:17:17.991Z,90.70
2022-07-28T01:19:59.979Z,90.70
2022-07-28T01:22:36.263Z,90.90
2022-07-28T01:25:18.935Z,90.90
2022-07-28T01:28:04.350Z,90.80
2022-07-28T01:30:40.982Z,90.90
2022-07-28T01:33:19.085Z,90.80
2022-07-28T01:35:55.622Z,90.90
2022-07-28T01:38:27.387Z,91.00
2022-07-28T01:40:57.583Z,91.20
2022-07-28T01:43:30.073Z,91.20
2022-07-28T01:46:02.281Z,91.20
2022-07-28T01:48:32.263Z,91.30
2022-07-28T01:51:01.786Z,91.20
2022-07-28T01:53:37.566Z,91.40
2022-07-28T01:56:09.010Z,91.40
2022-07-28T01:58:39.655Z,91.50
2022-07-28T02:01:11.451Z,91.60
2022-07-28T02:03:44.683Z,91.50
2022-07-28T02:06:17.154Z,92.00
2022-07-28T02:08:47.634Z,91.80
2022-07-28T02:11:35.652Z,92.20
2022-07-28T02:14:05.942Z,91.80
2022-07-28T02:16:36.117Z,92.10
2022-07-28T02:19:05.917Z,92.10
2022-07-28T02:21:36.157Z,92.20
2022-07-28T02:24:06.026Z,92.20
2022-07-28T02:26:39.019Z,92.40
2022-07-28T02:29:33.336Z,92.40
2022-07-28T02:32:23.998Z,92.50
2022-07-28T02:35:01.716Z,92.60
2022-07-28T02:37:37.226Z,92.80
2022-07-28T02:40:10.489Z,92.80
2022-07-28T02:42:41.932Z,92.80
2022-07-28T02:45:14.086Z,92.80
2022-07-28T02:47:50.104Z,92.90
2022-07-28T02:50:22.897Z,92.80
2022-07-28T02:52:53.862Z,92.80
2022-07-28T02:55:22.488Z,93.00
2022-07-28T02:57:56.531Z,93.00
2022-07-28T03:00:26.875Z,93.00
2022-07-28T03:02:58.012Z,93.40
2022-07-28T03:05:28.801Z,93.00
2022-07-28T03:07:58.702Z,93.10
2022-07-28T03:10:33.681Z,93.20
2022-07-28T03:13:05.215Z,93.40
2022-07-28T03:15:33.620Z,93.40
2022-07-28T03:18:05.834Z,93.40
2022-07-28T03:20:34.635Z,93.40
2022-07-28T03:23:03.175Z,93.50
2022-07-28T03:25:41.956Z,93.50
2022-07-28T03:28:15.005Z,93.40
2022-07-28T03:30:49.518Z,93.60
2022-07-28T03:33:20.351Z,93.60
2022-07-28T03:35:54.387Z,93.60
2022-07-28T03:38:26.654Z,93.60
2022-07-28T03:40:58.662Z,93.60
2022-07-28T03:43:29.734Z,93.60
2022-07-28T03:45:57.989Z,93.60
2022-07-28T03:48:31.764Z,93.60
2022-07-28T03:51:00.265Z,93.50
2022-07-28T03:53:30.596Z,93.70
2022-07-28T03:55:58.985Z,93.70
2022-07-28T03:58:29.266Z,93.70
2022-07-28T04:00:58.153Z,93.80
2022-07-28T04:03:42.273Z,93.90
2022-07-28T04:06:13.838Z,93.90
2022-07-28T04:08:42.704Z,94.00
2022-07-28T04:11:10.956Z,94.00
2022-07-28T04:13:39.117Z,94.40
2022-07-28T04:16:07.845Z,94.20
2022-07-28T04:18:36.331Z,94.10
2022-07-28T04:21:05.394Z,94.30
2022-07-28T04:23:35.219Z,94.30
2022-07-28T04:26:03.350Z,94.40
2022-07-28T04:28:31.727Z,94.40
2022-07-28T04:30:59.915Z,94.40
2022-07-28T04:33:27.865Z,94.50
2022-07-28T04:35:55.888Z,94.70
2022-07-28T04:38:23.867Z,94.80
2022-07-28T04:40:53.724Z,94.90
2022-07-28T04:43:23.014Z,95.00
2022-07-28T04:45:53.519Z,95.00
2022-07-28T04:48:23.718Z,95.30
2022-07-28T04:50:55.049Z,95.30
2022-07-28T04:53:30.596Z,95.40
2022-07-28T04:56:09.125Z,95.50
2022-07-28T04:58:44.689Z,95.70
2022-07-28T05:01:14.932Z,95.90
2022-07-28T05:03:43.144Z,96.00
2022-07-28T05:06:11.200Z,95.90
2022-07-28T05:08:39.373Z,96.00
2022-07-28T05:11:08.790Z,96.40
2022-07-28T05:13:36.893Z,96.30
2022-07-28T05:16:05.536Z,96.40
2022-07-28T05:18:33.808Z,96.50
2022-07-28T05:21:02.076Z,96.50
2022-07-28T05:23:30.854Z,96.40
2022-07-28T05:25:58.938Z,96.50
2022-07-28T05:28:28.614Z,96.70
2022-07-28T05:30:57.383Z,96.90
2022-07-28T05:33:29.045Z,97.00
2022-07-28T05:36:00.450Z,97.10
2022-07-28T05:38:30.323Z,97.30
2022-07-28T05:40:58.728Z,97.30
2022-07-28T05:43:28.348Z,97.30
2022-07-28T05:45:56.618Z,97.20
2022-07-28T05:48:25.647Z,97.50
2022-07-28T05:50:54.570Z,97.60
2022-07-28T05:53:32.950Z,97.70
2022-07-28T05:56:01.979Z,97.70
2022-07-28T05:58:34.430Z,97.70
2022-07-28T06:01:04.811Z,97.80
2022-07-28T06:03:39.765Z,97.80
2022-07-28T06:06:16.229Z,97.80
2022-07-28T06:08:47.239Z,97.90
2022-07-28T06:11:21.714Z,97.90
2022-07-28T06:13:56.393Z,98.20
2022-07-28T06:16:24.777Z,98.20
2022-07-28T06:18:53.928Z,98.40
2022-07-28T06:21:24.907Z,98.80
2022-07-28T06:23:53.340Z,98.70
2022-07-28T06:26:23.540Z,98.30
2022-07-28T06:28:53.731Z,98.10
2022-07-28T06:31:22.079Z,98.00
2022-07-28T06:33:50.957Z,97.70
2022-07-28T06:36:19.535Z,97.80
2022-07-28T06:38:51.045Z,97.40
2022-07-28T06:41:19.765Z,97.50
2022-07-28T06:43:47.920Z,97.50
2022-07-28T06:46:19.472Z,97.80
2022-07-28T06:48:51.807Z,97.40
2022-07-28T06:51:20.239Z,97.60
2022-07-28T06:53:49.028Z,97.50
2022-07-28T06:56:19.640Z,97.40
2022-07-28T06:58:55.847Z,97.50
2022-07-28T07:01:25.500Z,97.50
2022-07-28T07:03:53.853Z,97.70
2022-07-28T07:06:22.118Z,97.70
2022-07-28T07:08:50.417Z,97.50
2022-07-28T07:11:18.776Z,97.50
2022-07-28T07:13:47.204Z,97.30
2022-07-28T07:16:16.839Z,97.30
2022-07-28T07:18:52.925Z,97.20
2022-07-28T07:21:21.263Z,97.10
2022-07-28T07:23:51.460Z,97.20
2022-07-28T07:26:25.523Z,97.20
2022-07-28T07:32:05.678Z,97.20
2022-07-28T07:34:41.550Z,97.10
2022-07-28T07:37:15.212Z,97.00
2022-07-28T07:39:51.355Z,96.70
2022-07-28T07:42:36.826Z,96.50
2022-07-28T07:45:13.943Z,96.40
2022-07-28T07:47:42.340Z,96.20
2022-07-28T07:50:15.367Z,95.90
2022-07-28T07:52:43.870Z,96.00
2022-07-28T07:55:12.219Z,96.00
2022-07-28T07:57:50.408Z,95.80
2022-07-28T08:03:12.056Z,95.60
2022-07-28T08:05:44.718Z,95.40
2022-07-28T08:08:21.390Z,95.10
2022-07-28T08:10:56.194Z,95.10
2022-07-28T08:13:27.315Z,94.80
2022-07-28T08:15:55.980Z,94.90
2022-07-28T08:18:53.664Z,94.70
2022-07-28T08:21:23.242Z,94.40
2022-07-28T08:23:55.792Z,94.50
2022-07-28T08:26:32.698Z,94.00
2022-07-28T08:29:06.522Z,93.40
2022-07-28T08:31:35.415Z,93.40
2022-07-28T08:34:04.074Z,93.40
2022-07-28T08:36:59.123Z,92.90
2022-07-28T08:39:49.552Z,93.00
2022-07-28T08:42:35.239Z,92.80
2022-07-28T08:45:07.232Z,93.00
2022-07-28T08:48:07.217Z,93.00
2022-07-28T08:50:34.292Z,93.00
2022-07-28T08:53:20.904Z,93.10
2022-07-28T08:55:53.586Z,92.30
2022-07-28T08:58:25.371Z,92.70
2022-07-28T09:01:09.484Z,92.30
2022-07-28T09:03:47.927Z,92.30
2022-07-28T09:06:18.534Z,92.10
2022-07-28T09:08:48.539Z,92.30
2022-07-28T09:11:21.696Z,92.20
2022-07-28T09:16:44.654Z,92.00
2022-07-28T09:19:13.010Z,91.90
2022-07-28T09:21:44.886Z,91.70
2022-07-28T09:24:41.704Z,91.70
2022-07-28T09:27:13.411Z,91.20
2022-07-28T09:29:51.568Z,91.50
2022-07-28T09:32:25.314Z,91.60
2022-07-28T09:35:09.558Z,91.60
2022-07-28T09:37:37.933Z,91.70
2022-07-28T09:40:14.959Z,91.40
2022-07-28T09:42:52.692Z,91.10
2022-07-28T09:45:29.254Z,91.00
2022-07-28T09:48:18.689Z,90.90
2022-07-28T09:50:51.613Z,91.00
2022-07-28T09:53:35.663Z,91.00
2022-07-28T09:56:14.808Z,90.80
2022-07-28T09:58:59.430Z,90.40
2022-07-28T10:01:36.598Z,90.60
2022-07-28T10:04:09.607Z,90.50
2022-07-28T10:06:52.159Z,90.10
2022-07-28T10:09:29.226Z,89.60
2022-07-28T10:12:22.684Z,88.60
2022-07-28T10:14:55.961Z,87.80
2022-07-28T10:17:33.540Z,88.70
2022-07-28T10:20:13.796Z,89.00
2022-07-28T10:23:47.673Z,89.10
2022-07-28T10:26:36.143Z,87.60
2022-07-28T10:29:22.603Z,87.90
2022-07-28T10:32:07.680Z,87.80
2022-07-28T10:34:49.673Z,88.10
2022-07-28T10:37:26.062Z,87.80
2022-07-28T10:40:10.026Z,86.70
2022-07-28T10:43:08.793Z,85.60
2022-07-28T10:46:09.776Z,85.00
2022-07-28T10:48:53.356Z,85.80
2022-07-28T10:52:08.811Z,86.50
2022-07-28T10:58:12.393Z,86.10
2022-07-28T11:01:10.648Z,85.60
2022-07-28T11:04:06.699Z,86.10
2022-07-28T11:06:57.147Z,85.30
2022-07-28T11:09:49.858Z,85.60
2022-07-28T11:13:21.183Z,85.30
2022-07-28T11:16:46.955Z,81.10
2022-07-28T11:20:25.880Z,83.40
2022-07-28T11:23:57.733Z,84.20
2022-07-28T11:29:57.583Z,82.20
2022-07-28T11:33:11.709Z,82.00
2022-07-28T11:43:40.835Z,79.40
2022-07-28T11:47:23.082Z,75.70
2022-07-28T11:54:27.026Z,77.30
2022-07-28T11:57:20.974Z,79.10
2022-07-28T12:00:38.205Z,80.10
2022-07-28T12:03:10.132Z,78.00
2022-07-28T12:15:51.986Z,78.40
2022-07-28T12:19:57.754Z,76.00
2022-07-28T12:47:50.998Z,75.50
2022-07-28T12:50:58.631Z,76.30
2022-07-28T12:56:47.375Z,76.50
2022-07-28T12:59:19.534Z,76.20
2022-07-28T13:01:51.126Z,75.50
2022-07-28T13:04:41.531Z,75.80
2022-07-28T13:07:12.852Z,73.90
2022-07-28T13:09:50.185Z,75.10
2022-07-28T13:12:30.760Z,74.80
2022-07-28T13:15:03.024Z,75.20
2022-07-28T13:17:50.402Z,75.00
2022-07-28T13:20:18.642Z,74.40
2022-07-28T13:22:47.488Z,73.70
2022-07-28T13:25:15.988Z,73.70
2022-07-28T13:27:44.097Z,73.30
2022-07-28T13:30:13.857Z,73.50
2022-07-28T13:32:42.047Z,73.40
2022-07-28T13:35:15.155Z,72.70
2022-07-28T13:37:46.132Z,72.90
2022-07-28T13:40:14.606Z,73.00
2022-07-28T13:42:53.402Z,72.60
2022-07-28T13:45:30.261Z,72.30
2022-07-28T13:47:58.507Z,71.50
2022-07-28T13:50:27.145Z,71.60
2022-07-28T13:52:55.217Z,71.60
2022-07-28T13:55:23.495Z,71.40
2022-07-28T13:57:56.446Z,71.20
2022-07-28T14:00:26.251Z,70.70
2022-07-28T14:02:55.031Z,70.30
2022-07-28T14:05:23.255Z,70.20
2022-07-28T14:07:51.570Z,70.00
2022-07-28T14:10:19.654Z,70.30
2022-07-28T14:12:47.731Z,70.60
2022-07-28T14:15:16.215Z,70.40
2022-07-28T14:17:46.491Z,70.60
2022-07-28T14:20:16.608Z,69.90
2022-07-28T14:22:46.605Z,69.50
2022-07-28T14:25:21.041Z,69.60
2022-07-28T14:27:51.013Z,69.50
2022-07-28T14:30:20.275Z,69.40
2022-07-28T14:32:50.097Z,68.90
2022-07-28T14:35:18.379Z,68.60
2022-07-28T14:38:28.498Z,68.70
2022-07-28T14:40:39.507Z,69.70
2022-07-28T14:43:08.371Z,68.30
2022-07-28T14:46:01.507Z,68.00
2022-07-28T14:48:26.319Z,67.70
2022-07-28T14:50:55.402Z,68.10
2022-07-28T14:53:24.060Z,67.90
2022-07-28T14:55:56.006Z,67.70
2022-07-28T14:58:24.149Z,67.70
2022-07-28T15:00:53.712Z,67.80
2022-07-28T15:03:22.286Z,67.70
2022-07-28T15:05:51.694Z,67.40
2022-07-28T15:08:19.608Z,67.20
2022-07-28T15:10:53.517Z,66.60
2022-07-28T15:13:21.662Z,66.40
2022-07-28T15:15:49.667Z,66.50
2022-07-28T15:18:17.665Z,66.70
2022-07-28T15:20:45.824Z,66.30
2022-07-28T15:23:15.086Z,66.40
2022-07-28T15:25:44.068Z,66.20
2022-07-28T15:28:12.710Z,66.20
2022-07-28T15:30:57.325Z,66.30
2022-07-28T15:33:25.892Z,66.80
2022-07-28T15:35:58.485Z,66.40
2022-07-28T15:38:31.648Z,66.20
2022-07-28T15:41:00.463Z,65.80
2022-07-28T15:43:29.438Z,65.70
2022-07-28T15:45:57.878Z,65.90
2022-07-28T15:48:26.113Z,66.00
2022-07-28T15:50:54.106Z,65.50
2022-07-28T15:53:22.302Z,65.30
2022-07-28T15:55:52.050Z,65.30
2022-07-28T15:58:21.129Z,65.20
2022-07-28T16:00:49.949Z,64.70
2022-07-28T16:03:18.293Z,64.20
2022-07-28T16:05:49.385Z,64.00
2022-07-28T16:08:17.990Z,64.20
2022-07-28T16:10:54.742Z,64.40
2022-07-28T16:13:32.859Z,64.60
2022-07-28T16:16:08.290Z,64.70
2022-07-28T16:18:38.000Z,65.10
2022-07-28T16:21:08.947Z,64.30
2022-07-28T16:23:37.554Z,63.90
2022-07-28T16:26:09.003Z,63.70
2022-07-28T16:28:37.079Z,63.50
2022-07-28T16:31:05.603Z,63.70
2022-07-28T16:33:34.000Z,63.90
2022-07-28T16:36:02.309Z,63.80
2022-07-28T16:38:30.737Z,63.80
2022-07-28T16:40:58.722Z,63.60
2022-07-28T16:43:28.093Z,63.60
2022-07-28T16:45:56.195Z,63.60
2022-07-28T16:48:24.255Z,63.60
2022-07-28T16:50:52.192Z,63.70
2022-07-28T16:53:20.156Z,63.70
2022-07-28T16:55:48.163Z,63.70
2022-07-28T16:58:17.935Z,63.70
2022-07-28T17:00:47.249Z,63.90
2022-07-28T17:03:16.222Z,63.70
2022-07-28T17:05:44.415Z,63.80
2022-07-28T17:08:12.536Z,63.80
2022-07-28T17:10:40.564Z,63.70
2022-07-28T17:13:11.374Z,63.80
2022-07-28T17:15:41.229Z,63.80
2022-07-28T17:18:12.446Z,63.70
2022-07-28T17:20:42.154Z,63.70
2022-07-28T17:23:10.353Z,63.90
2022-07-28T17:26:09.028Z,63.90
2022-07-28T17:28:27.101Z,64.00
2022-07-28T17:30:55.175Z,64.10
2022-07-28T17:33:24.772Z,64.10
2022-07-28T17:35:54.953Z,64.10
2022-07-28T17:38:30.976Z,64.30
2022-07-28T17:41:03.671Z,64.30
2022-07-28T17:43:32.668Z,64.30
2022-07-28T17:46:00.871Z,64.30
2022-07-28T17:48:30.570Z,64.20
2022-07-28T17:50:58.535Z,64.40
2022-07-28T17:53:26.497Z,64.50
2022-07-28T17:56:01.126Z,64.40
2022-07-28T17:58:32.353Z,64.40
2022-07-28T18:01:10.194Z,64.40
2022-07-28T18:03:58.127Z,64.40
2022-07-28T18:06:30.651Z,64.30
2022-07-28T18:09:03.801Z,64.40
2022-07-28T18:11:43.354Z,64.60
2022-07-28T18:14:24.706Z,64.60
2022-07-28T18:16:52.667Z,64.70
2022-07-28T18:19:22.076Z,64.70
2022-07-28T18:21:50.271Z,64.80
2022-07-28T18:24:21.557Z,64.80
2022-07-28T18:26:49.678Z,64.70
2022-07-28T18:29:19.141Z,64.70
2022-07-28T18:31:47.349Z,64.70
2022-07-28T18:34:16.219Z,64.80
2022-07-28T18:36:45.926Z,64.90
2022-07-28T18:39:14.045Z,64.90
2022-07-28T18:41:47.177Z,65.00
2022-07-28T18:44:17.021Z,65.30
2022-07-28T18:46:51.689Z,65.40
2022-07-28T18:49:20.059Z,65.30
2022-07-28T18:51:49.587Z,65.50
2022-07-28T18:54:21.800Z,65.60
2022-07-28T18:56:55.666Z,65.40
2022-07-28T18:59:24.791Z,65.50
2022-07-28T19:01:53.297Z,65.40
2022-07-28T19:04:21.535Z,65.50
2022-07-28T19:06:51.260Z,65.60
2022-07-28T19:09:19.669Z,65.50
2022-07-28T19:11:48.259Z,65.70
2022-07-28T19:14:17.568Z,65.70
2022-07-28T19:16:46.365Z,65.70
2022-07-28T19:19:15.070Z,65.90
2022-07-28T19:21:43.831Z,67.00
2022-07-28T19:24:15.012Z,66.30
2022-07-28T19:26:45.334Z,66.40
2022-07-28T19:29:13.975Z,66.50
2022-07-28T19:31:42.361Z,66.60
2022-07-28T19:34:11.307Z,66.60
2022-07-28T19:36:41.632Z,66.60
2022-07-28T19:39:11.952Z,66.80
2022-07-28T19:41:42.206Z,66.60
2022-07-28T19:44:11.726Z,66.60
2022-07-28T19:46:40.700Z,66.60
2022-07-28T19:49:09.191Z,66.70
2022-07-28T19:51:37.342Z,66.80
2022-07-28T19:54:07.228Z,66.70
2022-07-28T19:56:37.300Z,66.80
2022-07-28T19:59:06.781Z,66.70
2022-07-28T20:01:34.923Z,66.80
2022-07-28T20:04:05.487Z,66.80
2022-07-28T20:06:34.345Z,66.90
2022-07-28T20:09:02.938Z,67.10
2022-07-28T20:11:32.671Z,67.20
2022-07-28T20:14:01.716Z,67.40
2022-07-28T20:16:31.398Z,67.60
2022-07-28T20:18:59.626Z,67.60
2022-07-28T20:21:28.318Z,67.70
2022-07-28T20:23:57.407Z,67.90
2022-07-28T20:26:26.816Z,67.80
2022-07-28T20:28:58.276Z,67.70
2022-07-28T20:31:26.398Z,67.70
2022-07-28T20:33:56.423Z,67.70
2022-07-28T20:36:29.611Z,67.80
2022-07-28T20:38:58.633Z,67.90
2022-07-28T20:41:26.738Z,67.90
2022-07-28T20:44:26.086Z,68.00
2022-07-28T20:46:43.397Z,68.10
2022-07-28T20:49:13.271Z,68.40
2022-07-28T20:51:45.354Z,68.40
2022-07-28T20:54:22.260Z,68.50
2022-07-28T20:56:50.225Z,68.70
2022-07-28T20:59:18.470Z,68.90
2022-07-28T21:01:46.593Z,68.90
2022-07-28T21:04:16.603Z,68.90
2022-07-28T21:06:51.153Z,69.10
2022-07-28T21:09:21.179Z,69.00
2022-07-28T21:11:49.430Z,69.00
2022-07-28T21:14:17.852Z,69.00
2022-07-28T21:16:46.296Z,69.20
2022-07-28T21:19:15.653Z,69.30
2022-07-28T21:21:43.803Z,69.40
2022-07-28T21:24:12.583Z,69.80
2022-07-28T21:26:42.637Z,69.90
2022-07-28T21:32:05.337Z,70.20
2022-07-28T21:34:34.872Z,70.20
2022-07-28T21:37:03.529Z,70.40
2022-07-28T21:39:31.935Z,70.50
2022-07-28T21:42:01.147Z,70.30
2022-07-28T21:44:29.462Z,70.30
2022-07-28T21:46:57.471Z,70.20
2022-07-28T21:49:28.492Z,70.30
2022-07-28T21:51:58.013Z,70.10
2022-07-28T21:54:26.107Z,70.10
2022-07-28T21:56:54.174Z,70.10
2022-07-28T21:59:22.291Z,70.20
2022-07-28T22:01:50.467Z,70.30
2022-07-28T22:04:19.368Z,70.50
2022-07-28T22:06:47.831Z,70.50
2022-07-28T22:09:17.510Z,70.40
2022-07-28T22:11:46.042Z,70.70
2022-07-28T22:14:14.918Z,70.50
2022-07-28T22:16:43.152Z,70.70
2022-07-28T22:19:12.030Z,70.70
2022-07-28T22:21:40.474Z,70.80
2022-07-28T22:24:09.833Z,70.60
2022-07-28T22:26:39.672Z,70.80
2022-07-28T22:29:07.841Z,70.80
2022-07-28T22:31:35.849Z,70.90
2022-07-28T22:34:04.268Z,70.90
2022-07-28T22:36:33.374Z,70.90
2022-07-28T22:39:01.618Z,70.80
2022-07-28T22:41:29.765Z,70.90
2022-07-28T22:43:59.191Z,71.00
2022-07-28T22:46:27.258Z,70.90
2022-07-28T22:48:55.918Z,70.90
2022-07-28T22:51:24.017Z,71.00
2022-07-28T22:53:51.999Z,70.90
2022-07-28T22:56:20.034Z,70.80
2022-07-28T22:58:49.495Z,70.80
2022-07-28T23:01:19.474Z,71.00
2022-07-28T23:03:47.617Z,71.30
2022-07-28T23:06:15.937Z,71.40
2022-07-28T23:08:44.220Z,71.40
2022-07-28T23:11:12.230Z,71.60
2022-07-28T23:13:40.846Z,71.60
2022-07-28T23:16:09.542Z,71.60
2022-07-28T23:18:41.581Z,71.80
2022-07-28T23:21:10.351Z,71.90
2022-07-28T23:23:38.913Z,72.00
2022-07-28T23:26:07.567Z,72.00
2022-07-28T23:28:37.144Z,72.00
2022-07-28T23:31:06.152Z,72.00
2022-07-28T23:33:56.664Z,72.20
2022-07-28T23:36:27.433Z,72.40
2022-07-28T23:38:57.704Z,72.50
2022-07-28T23:41:27.093Z,72.70
2022-07-28T23:43:55.615Z,73.60
2022-07-28T23:46:24.168Z,73.00
2022-07-28T23:48:52.530Z,73.10
2022-07-28T23:51:21.118Z,73.00
2022-07-28T23:53:55.851Z,73.30
2022-07-28T23:56:24.462Z,73.20
2022-07-28T23:58:52.718Z,73.30
